sensor_id;sensor_type;location;lat;lon;timestamp;temperature;humidity
38973;DHT22;25333;50.762;4.470;2022-08-05T00:01:20;20.40;99.90
38973;DHT22;25333;50.762;4.470;2022-08-05T00:03:47;20.40;99.90
38973;DHT22;25333;50.762;4.470;2022-08-05T00:06:14;20.40;99.90
38973;DHT22;25333;50.762;4.470;2022-08-05T00:08:41;20.40;99.90
38973;DHT22;25333;50.762;4.470;2022-08-05T00:11:35;20.30;99.90
38973;DHT22;25333;50.762;4.470;2022-08-05T00:14:03;20.30;99.90
38973;DHT22;25333;50.762;4.470;2022-08-05T00:16:53;20.40;99.90
38973;DHT22;25333;50.762;4.470;2022-08-05T00:19:23;20.40;99.90
38973;DHT22;25333;50.762;4.470;2022-08-05T00:21:52;20.40;99.90
38973;DHT22;25333;50.762;4.470;2022-08-05T00:24:18;20.50;99.90
38973;DHT22;25333;50.762;4.470;2022-08-05T00:26:48;20.50;99.90
38973;DHT22;25333;50.762;4.470;2022-08-05T00:29:14;20.50;99.90
38973;DHT22;25333;50.762;4.470;2022-08-05T00:31:39;20.40;99.90
38973;DHT22;25333;50.762;4.470;2022-08-05T00:34:05;20.30;99.90
38973;DHT22;25333;50.762;4.470;2022-08-05T00:36:31;20.40;99.90
38973;DHT22;25333;50.762;4.470;2022-08-05T00:38:56;20.30;99.90
38973;DHT22;25333;50.762;4.470;2022-08-05T00:41:29;20.30;99.90
38973;DHT22;25333;50.762;4.470;2022-08-05T00:43:55;20.20;99.90
38973;DHT22;25333;50.762;4.470;2022-08-05T00:46:21;20.20;99.90
38973;DHT22;25333;50.762;4.470;2022-08-05T00:48:47;20.20;99.90
38973;DHT22;25333;50.762;4.470;2022-08-05T00:51:13;20.20;99.90
38973;DHT22;25333;50.762;4.470;2022-08-05T00:53:39;20.20;99.90
38973;DHT22;25333;50.762;4.470;2022-08-05T00:56:05;20.00;99.90
38973;DHT22;25333;50.762;4.470;2022-08-05T00:58:31;19.70;99.90
38973;DHT22;25333;50.762;4.470;2022-08-05T01:00:56;19.70;99.90
38973;DHT22;25333;50.762;4.470;2022-08-05T01:03:22;19.70;99.90
38973;DHT22;25333;50.762;4.470;2022-08-05T01:05:51;19.80;99.90
38973;DHT22;25333;50.762;4.470;2022-08-05T01:08:18;19.80;99.90
38973;DHT22;25333;50.762;4.470;2022-08-05T01:10:47;19.80;99.90
38973;DHT22;25333;50.762;4.470;2022-08-05T01:13:40;19.80;99.90
38973;DHT22;25333;50.762;4.470;2022-08-05T01:16:17;19.70;99.90
38973;DHT22;25333;50.762;4.470;2022-08-05T01:18:50;19.50;99.90
38973;DHT22;25333;50.762;4.470;2022-08-05T01:29:26;19.00;99.90
38973;DHT22;25333;50.762;4.470;2022-08-05T01:32:03;19.10;99.90
38973;DHT22;25333;50.762;4.470;2022-08-05T01:34:50;19.20;99.90
38973;DHT22;25333;50.762;4.470;2022-08-05T01:37:23;19.30;99.90
38973;DHT22;25333;50.762;4.470;2022-08-05T01:39:53;19.30;99.90
38973;DHT22;25333;50.762;4.470;2022-08-05T01:42:22;19.30;99.90
38973;DHT22;25333;50.762;4.470;2022-08-05T01:44:50;19.40;99.90
38973;DHT22;25333;50.762;4.470;2022-08-05T01:47:19;19.40;99.90
38973;DHT22;25333;50.762;4.470;2022-08-05T01:49:47;19.40;99.90
38973;DHT22;25333;50.762;4.470;2022-08-05T01:52:25;19.40;99.90
38973;DHT22;25333;50.762;4.470;2022-08-05T01:55:05;19.40;99.90
38973;DHT22;25333;50.762;4.470;2022-08-05T01:57:42;19.40;99.90
38973;DHT22;25333;50.762;4.470;2022-08-05T02:00:14;19.40;99.90
38973;DHT22;25333;50.762;4.470;2022-08-05T02:02:56;19.40;99.90
38973;DHT22;25333;50.762;4.470;2022-08-05T02:05:37;19.40;99.90
38973;DHT22;25333;50.762;4.470;2022-08-05T02:08:08;19.40;99.90
38973;DHT22;25333;50.762;4.470;2022-08-05T02:10:47;19.40;99.90
38973;DHT22;25333;50.762;4.470;2022-08-05T02:13:24;19.50;99.90
38973;DHT22;25333;50.762;4.470;2022-08-05T02:16:02;19.50;99.90
38973;DHT22;25333;50.762;4.470;2022-08-05T02:18:38;19.50;99.90
38973;DHT22;25333;50.762;4.470;2022-08-05T02:21:14;19.50;99.90
38973;DHT22;25333;50.762;4.470;2022-08-05T02:23:42;19.50;99.90
38973;DHT22;25333;50.762;4.470;2022-08-05T02:26:28;19.50;99.90
38973;DHT22;25333;50.762;4.470;2022-08-05T02:28:58;19.60;99.90
38973;DHT22;25333;50.762;4.470;2022-08-05T02:31:29;19.60;99.90
38973;DHT22;25333;50.762;4.470;2022-08-05T02:34:19;19.60;99.90
38973;DHT22;25333;50.762;4.470;2022-08-05T02:36:55;19.60;99.90
38973;DHT22;25333;50.762;4.470;2022-08-05T02:39:24;19.60;99.90
38973;DHT22;25333;50.762;4.470;2022-08-05T02:41:55;19.60;99.90
38973;DHT22;25333;50.762;4.470;2022-08-05T02:44:23;19.60;99.90
38973;DHT22;25333;50.762;4.470;2022-08-05T02:46:50;19.70;99.90
38973;DHT22;25333;50.762;4.470;2022-08-05T02:49:18;19.60;99.90
38973;DHT22;25333;50.762;4.470;2022-08-05T02:51:44;19.70;99.90
38973;DHT22;25333;50.762;4.470;2022-08-05T02:54:32;19.70;99.90
38973;DHT22;25333;50.762;4.470;2022-08-05T02:56:59;19.70;99.90
38973;DHT22;25333;50.762;4.470;2022-08-05T02:59:25;19.60;99.90
38973;DHT22;25333;50.762;4.470;2022-08-05T03:01:53;19.60;99.90
38973;DHT22;25333;50.762;4.470;2022-08-05T03:04:24;19.60;99.90
38973;DHT22;25333;50.762;4.470;2022-08-05T03:06:50;19.50;99.90
38973;DHT22;25333;50.762;4.470;2022-08-05T03:09:16;19.50;99.90
38973;DHT22;25333;50.762;4.470;2022-08-05T03:11:44;19.50;99.90
38973;DHT22;25333;50.762;4.470;2022-08-05T03:14:10;19.50;99.90
38973;DHT22;25333;50.762;4.470;2022-08-05T03:16:36;19.50;99.90
38973;DHT22;25333;50.762;4.470;2022-08-05T03:19:03;19.50;99.90
38973;DHT22;25333;50.762;4.470;2022-08-05T03:21:28;19.40;99.90
38973;DHT22;25333;50.762;4.470;2022-08-05T03:23:57;19.40;99.90
38973;DHT22;25333;50.762;4.470;2022-08-05T03:26:23;19.40;99.90
38973;DHT22;25333;50.762;4.470;2022-08-05T03:28:49;19.30;99.90
38973;DHT22;25333;50.762;4.470;2022-08-05T03:31:15;19.40;99.90
38973;DHT22;25333;50.762;4.470;2022-08-05T03:33:40;19.30;99.90
38973;DHT22;25333;50.762;4.470;2022-08-05T03:36:07;19.40;99.90
38973;DHT22;25333;50.762;4.470;2022-08-05T03:38:39;19.40;99.90
38973;DHT22;25333;50.762;4.470;2022-08-05T03:41:06;19.40;99.90
38973;DHT22;25333;50.762;4.470;2022-08-05T03:43:34;19.40;99.90
38973;DHT22;25333;50.762;4.470;2022-08-05T03:46:00;19.40;99.90
38973;DHT22;25333;50.762;4.470;2022-08-05T03:48:34;19.30;99.90
38973;DHT22;25333;50.762;4.470;2022-08-05T03:51:16;19.40;99.90
38973;DHT22;25333;50.762;4.470;2022-08-05T03:54:20;19.40;99.90
38973;DHT22;25333;50.762;4.470;2022-08-05T03:57:06;19.40;99.90
38973;DHT22;25333;50.762;4.470;2022-08-05T03:59:40;19.40;99.90
38973;DHT22;25333;50.762;4.470;2022-08-05T04:02:28;19.40;99.90
38973;DHT22;25333;50.762;4.470;2022-08-05T04:04:57;19.40;99.90
38973;DHT22;25333;50.762;4.470;2022-08-05T04:07:23;19.30;99.90
38973;DHT22;25333;50.762;4.470;2022-08-05T04:09:50;19.30;99.90
38973;DHT22;25333;50.762;4.470;2022-08-05T04:12:16;19.30;99.90
38973;DHT22;25333;50.762;4.470;2022-08-05T04:14:42;19.30;99.90
38973;DHT22;25333;50.762;4.470;2022-08-05T04:17:10;19.30;99.90
38973;DHT22;25333;50.762;4.470;2022-08-05T04:19:43;19.20;99.90
38973;DHT22;25333;50.762;4.470;2022-08-05T04:22:10;19.20;99.90
38973;DHT22;25333;50.762;4.470;2022-08-05T04:24:40;19.30;99.90
38973;DHT22;25333;50.762;4.470;2022-08-05T04:27:06;19.20;99.90
38973;DHT22;25333;50.762;4.470;2022-08-05T04:29:32;19.20;99.90
38973;DHT22;25333;50.762;4.470;2022-08-05T04:31:58;19.20;99.90
38973;DHT22;25333;50.762;4.470;2022-08-05T04:34:24;19.20;99.90
38973;DHT22;25333;50.762;4.470;2022-08-05T04:36:50;19.20;99.90
38973;DHT22;25333;50.762;4.470;2022-08-05T04:39:16;19.20;99.90
38973;DHT22;25333;50.762;4.470;2022-08-05T04:41:42;19.20;99.90
38973;DHT22;25333;50.762;4.470;2022-08-05T04:44:07;19.10;99.90
38973;DHT22;25333;50.762;4.470;2022-08-05T04:46:33;19.10;99.90
38973;DHT22;25333;50.762;4.470;2022-08-05T04:48:58;19.10;99.90
38973;DHT22;25333;50.762;4.470;2022-08-05T04:51:24;19.10;99.90
38973;DHT22;25333;50.762;4.470;2022-08-05T04:53:49;19.10;99.90
38973;DHT22;25333;50.762;4.470;2022-08-05T04:56:15;19.00;99.90
38973;DHT22;25333;50.762;4.470;2022-08-05T04:58:40;19.00;99.90
38973;DHT22;25333;50.762;4.470;2022-08-05T05:01:10;19.10;99.90
38973;DHT22;25333;50.762;4.470;2022-08-05T05:03:36;19.00;99.90
38973;DHT22;25333;50.762;4.470;2022-08-05T05:06:03;19.10;99.90
38973;DHT22;25333;50.762;4.470;2022-08-05T05:08:28;19.10;99.90
38973;DHT22;25333;50.762;4.470;2022-08-05T05:10:54;19.10;99.90
38973;DHT22;25333;50.762;4.470;2022-08-05T05:13:22;19.10;99.90
38973;DHT22;25333;50.762;4.470;2022-08-05T05:15:48;19.00;99.90
38973;DHT22;25333;50.762;4.470;2022-08-05T05:18:15;19.00;99.90
38973;DHT22;25333;50.762;4.470;2022-08-05T05:20:47;19.00;99.90
38973;DHT22;25333;50.762;4.470;2022-08-05T05:23:13;19.00;99.90
38973;DHT22;25333;50.762;4.470;2022-08-05T05:25:43;19.00;99.90
38973;DHT22;25333;50.762;4.470;2022-08-05T05:28:10;19.00;99.90
38973;DHT22;25333;50.762;4.470;2022-08-05T05:30:37;18.90;99.90
38973;DHT22;25333;50.762;4.470;2022-08-05T05:33:05;18.90;99.90
38973;DHT22;25333;50.762;4.470;2022-08-05T05:35:32;19.00;99.90
38973;DHT22;25333;50.762;4.470;2022-08-05T05:37:59;19.00;99.90
38973;DHT22;25333;50.762;4.470;2022-08-05T05:40:26;19.00;99.90
38973;DHT22;25333;50.762;4.470;2022-08-05T05:42:52;19.00;99.90
38973;DHT22;25333;50.762;4.470;2022-08-05T05:45:19;19.00;99.90
38973;DHT22;25333;50.762;4.470;2022-08-05T05:47:45;19.10;99.90
38973;DHT22;25333;50.762;4.470;2022-08-05T05:50:13;19.00;99.90
38973;DHT22;25333;50.762;4.470;2022-08-05T05:52:39;19.10;99.90
38973;DHT22;25333;50.762;4.470;2022-08-05T05:55:07;19.10;99.90
38973;DHT22;25333;50.762;4.470;2022-08-05T05:57:34;19.10;99.90
38973;DHT22;25333;50.762;4.470;2022-08-05T05:59:59;19.00;99.90
38973;DHT22;25333;50.762;4.470;2022-08-05T06:02:25;19.10;99.90
38973;DHT22;25333;50.762;4.470;2022-08-05T06:04:51;19.10;99.90
38973;DHT22;25333;50.762;4.470;2022-08-05T06:07:16;19.10;99.90
38973;DHT22;25333;50.762;4.470;2022-08-05T06:09:42;19.10;99.90
38973;DHT22;25333;50.762;4.470;2022-08-05T06:12:08;19.20;99.90
38973;DHT22;25333;50.762;4.470;2022-08-05T06:14:33;19.10;99.90
38973;DHT22;25333;50.762;4.470;2022-08-05T06:16:59;19.10;99.90
38973;DHT22;25333;50.762;4.470;2022-08-05T06:19:25;19.10;99.90
38973;DHT22;25333;50.762;4.470;2022-08-05T06:21:51;19.00;99.90
38973;DHT22;25333;50.762;4.470;2022-08-05T06:24:18;19.00;99.90
38973;DHT22;25333;50.762;4.470;2022-08-05T06:26:44;19.10;99.90
38973;DHT22;25333;50.762;4.470;2022-08-05T06:29:10;19.10;99.90
38973;DHT22;25333;50.762;4.470;2022-08-05T06:31:36;19.10;99.90
38973;DHT22;25333;50.762;4.470;2022-08-05T06:34:03;19.10;99.90
38973;DHT22;25333;50.762;4.470;2022-08-05T06:36:29;19.10;99.90
38973;DHT22;25333;50.762;4.470;2022-08-05T06:38:55;19.10;99.90
38973;DHT22;25333;50.762;4.470;2022-08-05T06:41:21;19.20;99.90
38973;DHT22;25333;50.762;4.470;2022-08-05T06:43:47;19.20;99.90
38973;DHT22;25333;50.762;4.470;2022-08-05T06:46:14;19.10;99.90
38973;DHT22;25333;50.762;4.470;2022-08-05T06:48:41;19.20;99.90
38973;DHT22;25333;50.762;4.470;2022-08-05T06:51:07;19.20;99.90
38973;DHT22;25333;50.762;4.470;2022-08-05T06:53:34;19.20;99.90
38973;DHT22;25333;50.762;4.470;2022-08-05T06:56:01;19.10;99.90
38973;DHT22;25333;50.762;4.470;2022-08-05T06:58:31;19.00;99.90
38973;DHT22;25333;50.762;4.470;2022-08-05T07:00:58;19.10;99.90
38973;DHT22;25333;50.762;4.470;2022-08-05T07:03:24;19.10;99.90
38973;DHT22;25333;50.762;4.470;2022-08-05T07:05:50;19.10;99.90
38973;DHT22;25333;50.762;4.470;2022-08-05T07:08:16;19.20;99.90
38973;DHT22;25333;50.762;4.470;2022-08-05T07:10:42;19.30;99.90
38973;DHT22;25333;50.762;4.470;2022-08-05T07:13:07;19.30;99.90
38973;DHT22;25333;50.762;4.470;2022-08-05T07:15:51;19.40;99.90
38973;DHT22;25333;50.762;4.470;2022-08-05T07:18:35;19.40;99.90
38973;DHT22;25333;50.762;4.470;2022-08-05T07:21:01;19.40;99.90
38973;DHT22;25333;50.762;4.470;2022-08-05T07:23:27;19.50;99.90
38973;DHT22;25333;50.762;4.470;2022-08-05T07:25:53;19.50;99.90
38973;DHT22;25333;50.762;4.470;2022-08-05T07:28:19;19.60;99.90
38973;DHT22;25333;50.762;4.470;2022-08-05T07:30:44;19.60;99.90
38973;DHT22;25333;50.762;4.470;2022-08-05T07:33:11;19.50;99.90
38973;DHT22;25333;50.762;4.470;2022-08-05T07:35:38;19.50;99.90
38973;DHT22;25333;50.762;4.470;2022-08-05T07:38:04;19.40;99.90
38973;DHT22;25333;50.762;4.470;2022-08-05T07:40:30;19.50;99.90
38973;DHT22;25333;50.762;4.470;2022-08-05T07:42:56;19.50;99.90
38973;DHT22;25333;50.762;4.470;2022-08-05T07:45:22;19.60;99.90
38973;DHT22;25333;50.762;4.470;2022-08-05T07:47:48;19.70;99.90
38973;DHT22;25333;50.762;4.470;2022-08-05T07:50:13;19.80;99.90
38973;DHT22;25333;50.762;4.470;2022-08-05T07:52:41;19.90;99.90
38973;DHT22;25333;50.762;4.470;2022-08-05T07:55:08;19.70;99.90
38973;DHT22;25333;50.762;4.470;2022-08-05T07:57:35;19.90;99.90
38973;DHT22;25333;50.762;4.470;2022-08-05T08:00:03;20.00;99.90
38973;DHT22;25333;50.762;4.470;2022-08-05T08:02:31;20.00;99.90
38973;DHT22;25333;50.762;4.470;2022-08-05T08:04:58;20.10;99.90
38973;DHT22;25333;50.762;4.470;2022-08-05T08:07:23;20.00;99.90
38973;DHT22;25333;50.762;4.470;2022-08-05T08:09:50;20.00;99.90
38973;DHT22;25333;50.762;4.470;2022-08-05T08:12:16;20.00;99.90
38973;DHT22;25333;50.762;4.470;2022-08-05T08:14:42;20.00;99.90
38973;DHT22;25333;50.762;4.470;2022-08-05T08:17:08;20.00;99.90
38973;DHT22;25333;50.762;4.470;2022-08-05T08:19:43;20.00;99.90
38973;DHT22;25333;50.762;4.470;2022-08-05T08:22:09;20.00;99.90
38973;DHT22;25333;50.762;4.470;2022-08-05T08:24:39;19.90;99.90
38973;DHT22;25333;50.762;4.470;2022-08-05T08:27:12;20.00;99.90
38973;DHT22;25333;50.762;4.470;2022-08-05T08:29:38;20.10;99.90
38973;DHT22;25333;50.762;4.470;2022-08-05T08:32:06;20.20;99.90
38973;DHT22;25333;50.762;4.470;2022-08-05T08:34:31;20.10;99.90
38973;DHT22;25333;50.762;4.470;2022-08-05T08:36:57;20.00;99.90
38973;DHT22;25333;50.762;4.470;2022-08-05T08:39:23;20.00;99.90
38973;DHT22;25333;50.762;4.470;2022-08-05T08:41:50;20.20;99.90
38973;DHT22;25333;50.762;4.470;2022-08-05T08:44:18;20.20;99.90
38973;DHT22;25333;50.762;4.470;2022-08-05T08:46:46;20.40;99.90
38973;DHT22;25333;50.762;4.470;2022-08-05T08:49:13;20.50;99.90
38973;DHT22;25333;50.762;4.470;2022-08-05T08:51:41;20.50;99.90
38973;DHT22;25333;50.762;4.470;2022-08-05T08:54:10;20.50;99.90
38973;DHT22;25333;50.762;4.470;2022-08-05T08:56:39;20.40;99.90
38973;DHT22;25333;50.762;4.470;2022-08-05T08:59:06;20.50;99.90
38973;DHT22;25333;50.762;4.470;2022-08-05T09:01:32;20.60;99.90
38973;DHT22;25333;50.762;4.470;2022-08-05T09:03:58;20.70;99.90
38973;DHT22;25333;50.762;4.470;2022-08-05T09:06:26;20.80;99.90
38973;DHT22;25333;50.762;4.470;2022-08-05T09:08:52;20.80;99.90
38973;DHT22;25333;50.762;4.470;2022-08-05T09:11:18;20.80;99.90
38973;DHT22;25333;50.762;4.470;2022-08-05T09:13:44;20.70;99.90
38973;DHT22;25333;50.762;4.470;2022-08-05T09:16:11;20.70;99.90
38973;DHT22;25333;50.762;4.470;2022-08-05T09:18:40;20.70;99.90
38973;DHT22;25333;50.762;4.470;2022-08-05T09:21:08;20.80;99.90
38973;DHT22;25333;50.762;4.470;2022-08-05T09:23:34;21.00;99.90
38973;DHT22;25333;50.762;4.470;2022-08-05T09:26:12;21.10;99.90
38973;DHT22;25333;50.762;4.470;2022-08-05T09:28:39;21.20;99.90
38973;DHT22;25333;50.762;4.470;2022-08-05T09:31:11;21.10;99.90
38973;DHT22;25333;50.762;4.470;2022-08-05T09:33:52;21.10;99.90
38973;DHT22;25333;50.762;4.470;2022-08-05T09:36:19;21.10;99.90
38973;DHT22;25333;50.762;4.470;2022-08-05T09:38:59;21.00;99.90
38973;DHT22;25333;50.762;4.470;2022-08-05T09:41:25;20.80;99.90
38973;DHT22;25333;50.762;4.470;2022-08-05T09:43:51;20.70;99.90
38973;DHT22;25333;50.762;4.470;2022-08-05T09:46:28;20.70;99.90
38973;DHT22;25333;50.762;4.470;2022-08-05T09:48:56;20.80;99.90
38973;DHT22;25333;50.762;4.470;2022-08-05T09:51:36;21.00;99.90
38973;DHT22;25333;50.762;4.470;2022-08-05T09:54:07;21.20;99.90
38973;DHT22;25333;50.762;4.470;2022-08-05T09:56:37;21.30;99.90
38973;DHT22;25333;50.762;4.470;2022-08-05T10:01:29;21.70;99.90
38973;DHT22;25333;50.762;4.470;2022-08-05T10:04:03;21.90;99.60
38973;DHT22;25333;50.762;4.470;2022-08-05T10:06:30;22.00;98.50
38973;DHT22;25333;50.762;4.470;2022-08-05T10:09:17;22.10;98.20
38973;DHT22;25333;50.762;4.470;2022-08-05T10:11:44;22.20;98.10
38973;DHT22;25333;50.762;4.470;2022-08-05T10:14:24;22.40;99.90
38973;DHT22;25333;50.762;4.470;2022-08-05T10:16:51;22.20;97.80
38973;DHT22;25333;50.762;4.470;2022-08-05T10:19:17;22.20;99.90
38973;DHT22;25333;50.762;4.470;2022-08-05T10:21:42;22.20;99.90
38973;DHT22;25333;50.762;4.470;2022-08-05T10:24:12;22.20;99.90
38973;DHT22;25333;50.762;4.470;2022-08-05T10:26:43;22.20;99.10
38973;DHT22;25333;50.762;4.470;2022-08-05T10:29:09;22.40;99.00
38973;DHT22;25333;50.762;4.470;2022-08-05T10:31:36;22.60;99.10
38973;DHT22;25333;50.762;4.470;2022-08-05T10:34:05;22.60;94.80
38973;DHT22;25333;50.762;4.470;2022-08-05T10:36:32;22.50;94.70
38973;DHT22;25333;50.762;4.470;2022-08-05T10:39:03;22.60;95.20
38973;DHT22;25333;50.762;4.470;2022-08-05T10:41:36;22.60;96.20
38973;DHT22;25333;50.762;4.470;2022-08-05T10:44:08;22.70;96.00
38973;DHT22;25333;50.762;4.470;2022-08-05T10:46:43;22.70;94.10
38973;DHT22;25333;50.762;4.470;2022-08-05T10:49:09;22.70;96.50
38973;DHT22;25333;50.762;4.470;2022-08-05T10:51:45;22.60;97.30
38973;DHT22;25333;50.762;4.470;2022-08-05T10:54:12;22.40;97.60
38973;DHT22;25333;50.762;4.470;2022-08-05T10:56:49;22.20;97.40
38973;DHT22;25333;50.762;4.470;2022-08-05T10:59:17;22.30;96.60
38973;DHT22;25333;50.762;4.470;2022-08-05T11:01:43;22.40;95.80
38973;DHT22;25333;50.762;4.470;2022-08-05T11:04:11;22.70;98.40
38973;DHT22;25333;50.762;4.470;2022-08-05T11:09:45;23.10;97.00
38973;DHT22;25333;50.762;4.470;2022-08-05T11:15:07;23.60;96.90
38973;DHT22;25333;50.762;4.470;2022-08-05T11:17:34;23.80;96.50
38973;DHT22;25333;50.762;4.470;2022-08-05T11:20:07;23.70;94.30
38973;DHT22;25333;50.762;4.470;2022-08-05T11:22:47;23.60;95.20
38973;DHT22;25333;50.762;4.470;2022-08-05T11:25:32;23.50;95.00
38973;DHT22;25333;50.762;4.470;2022-08-05T11:33:30;23.00;95.00
38973;DHT22;25333;50.762;4.470;2022-08-05T11:36:00;22.90;92.90
38973;DHT22;25333;50.762;4.470;2022-08-05T11:41:14;22.90;96.10
38973;DHT22;25333;50.762;4.470;2022-08-05T11:46:24;23.00;94.00
38973;DHT22;25333;50.762;4.470;2022-08-05T11:48:49;23.00;94.30
38973;DHT22;25333;50.762;4.470;2022-08-05T11:51:15;23.10;94.10
38973;DHT22;25333;50.762;4.470;2022-08-05T11:53:41;23.00;94.40
38973;DHT22;25333;50.762;4.470;2022-08-05T11:56:07;22.80;94.60
38973;DHT22;25333;50.762;4.470;2022-08-05T11:58:35;22.50;92.70
38973;DHT22;25333;50.762;4.470;2022-08-05T12:01:10;22.50;95.30
38973;DHT22;25333;50.762;4.470;2022-08-05T12:03:41;22.50;92.80
38973;DHT22;25333;50.762;4.470;2022-08-05T12:06:07;22.60;95.30
38973;DHT22;25333;50.762;4.470;2022-08-05T12:08:45;22.80;94.20
38973;DHT22;25333;50.762;4.470;2022-08-05T12:11:23;22.90;93.40
38973;DHT22;25333;50.762;4.470;2022-08-05T12:14:04;23.10;94.20
38973;DHT22;25333;50.762;4.470;2022-08-05T12:16:35;23.30;94.60
38973;DHT22;25333;50.762;4.470;2022-08-05T12:19:03;23.30;94.80
38973;DHT22;25333;50.762;4.470;2022-08-05T12:21:33;23.30;93.00
38973;DHT22;25333;50.762;4.470;2022-08-05T12:24:06;23.10;92.30
38973;DHT22;25333;50.762;4.470;2022-08-05T12:26:36;23.20;94.70
38973;DHT22;25333;50.762;4.470;2022-08-05T12:29:04;23.40;93.50
38973;DHT22;25333;50.762;4.470;2022-08-05T12:31:34;23.50;93.80
38973;DHT22;25333;50.762;4.470;2022-08-05T12:34:05;23.70;93.90
38973;DHT22;25333;50.762;4.470;2022-08-05T12:36:32;23.70;91.70
38973;DHT22;25333;50.762;4.470;2022-08-05T12:38:58;23.60;92.90
38973;DHT22;25333;50.762;4.470;2022-08-05T12:41:29;23.50;91.10
38973;DHT22;25333;50.762;4.470;2022-08-05T12:43:59;23.30;93.30
38973;DHT22;25333;50.762;4.470;2022-08-05T12:46:27;23.10;91.50
38973;DHT22;25333;50.762;4.470;2022-08-05T12:49:07;23.00;94.70
38973;DHT22;25333;50.762;4.470;2022-08-05T12:51:50;22.90;91.60
38973;DHT22;25333;50.762;4.470;2022-08-05T12:54:22;22.90;91.80
38973;DHT22;25333;50.762;4.470;2022-08-05T12:56:51;23.00;91.10
38973;DHT22;25333;50.762;4.470;2022-08-05T13:02:04;23.10;91.20
38973;DHT22;25333;50.762;4.470;2022-08-05T13:04:32;23.20;91.60
38973;DHT22;25333;50.762;4.470;2022-08-05T13:07:00;23.30;91.60
38973;DHT22;25333;50.762;4.470;2022-08-05T13:09:27;23.50;91.60
38973;DHT22;25333;50.762;4.470;2022-08-05T13:12:09;23.60;91.20
38973;DHT22;25333;50.762;4.470;2022-08-05T13:14:41;23.60;90.90
38973;DHT22;25333;50.762;4.470;2022-08-05T13:17:18;23.50;91.40
38973;DHT22;25333;50.762;4.470;2022-08-05T13:22:30;23.30;91.40
38973;DHT22;25333;50.762;4.470;2022-08-05T13:24:58;23.20;92.00
38973;DHT22;25333;50.762;4.470;2022-08-05T13:27:28;23.30;92.20
38973;DHT22;25333;50.762;4.470;2022-08-05T13:29:55;23.20;91.20
38973;DHT22;25333;50.762;4.470;2022-08-05T13:32:20;23.10;90.20
38973;DHT22;25333;50.762;4.470;2022-08-05T13:34:47;23.10;90.90
38973;DHT22;25333;50.762;4.470;2022-08-05T13:37:13;23.00;90.00
38973;DHT22;25333;50.762;4.470;2022-08-05T13:39:39;23.00;88.30
38973;DHT22;25333;50.762;4.470;2022-08-05T13:42:05;23.10;90.80
38973;DHT22;25333;50.762;4.470;2022-08-05T13:44:31;23.10;90.10
38973;DHT22;25333;50.762;4.470;2022-08-05T13:46:57;23.10;90.40
38973;DHT22;25333;50.762;4.470;2022-08-05T13:49:22;23.10;88.60
38973;DHT22;25333;50.762;4.470;2022-08-05T13:51:48;23.10;89.60
38973;DHT22;25333;50.762;4.470;2022-08-05T13:54:16;23.10;91.00
38973;DHT22;25333;50.762;4.470;2022-08-05T13:56:44;23.00;89.40
38973;DHT22;25333;50.762;4.470;2022-08-05T13:59:10;23.00;90.60
38973;DHT22;25333;50.762;4.470;2022-08-05T14:01:35;23.10;88.60
38973;DHT22;25333;50.762;4.470;2022-08-05T14:04:01;23.10;88.70
38973;DHT22;25333;50.762;4.470;2022-08-05T14:06:46;23.20;89.30
38973;DHT22;25333;50.762;4.470;2022-08-05T14:09:11;23.30;89.10
38973;DHT22;25333;50.762;4.470;2022-08-05T14:11:37;23.40;87.60
38973;DHT22;25333;50.762;4.470;2022-08-05T14:14:06;23.30;86.10
38973;DHT22;25333;50.762;4.470;2022-08-05T14:16:31;23.20;89.10
38973;DHT22;25333;50.762;4.470;2022-08-05T14:18:57;23.20;88.20
38973;DHT22;25333;50.762;4.470;2022-08-05T14:21:23;23.10;88.70
38973;DHT22;25333;50.762;4.470;2022-08-05T14:23:48;23.10;86.10
38973;DHT22;25333;50.762;4.470;2022-08-05T14:26:14;23.10;88.50
38973;DHT22;25333;50.762;4.470;2022-08-05T14:28:40;23.20;84.50
38973;DHT22;25333;50.762;4.470;2022-08-05T14:31:05;23.30;90.00
38973;DHT22;25333;50.762;4.470;2022-08-05T14:33:31;23.40;89.00
38973;DHT22;25333;50.762;4.470;2022-08-05T14:35:58;23.50;87.00
38973;DHT22;25333;50.762;4.470;2022-08-05T14:38:24;23.50;84.50
38973;DHT22;25333;50.762;4.470;2022-08-05T14:40:49;23.50;84.70
38973;DHT22;25333;50.762;4.470;2022-08-05T14:43:15;23.50;85.30
38973;DHT22;25333;50.762;4.470;2022-08-05T14:45:41;23.50;86.10
38973;DHT22;25333;50.762;4.470;2022-08-05T14:48:06;23.50;86.70
38973;DHT22;25333;50.762;4.470;2022-08-05T14:50:32;23.40;86.30
38973;DHT22;25333;50.762;4.470;2022-08-05T14:52:58;23.30;84.30
38973;DHT22;25333;50.762;4.470;2022-08-05T14:55:24;23.20;88.80
38973;DHT22;25333;50.762;4.470;2022-08-05T14:57:50;23.20;86.20
38973;DHT22;25333;50.762;4.470;2022-08-05T15:00:16;23.10;87.00
38973;DHT22;25333;50.762;4.470;2022-08-05T15:02:42;23.00;87.10
38973;DHT22;25333;50.762;4.470;2022-08-05T15:05:08;22.90;87.50
38973;DHT22;25333;50.762;4.470;2022-08-05T15:07:33;22.90;87.60
38973;DHT22;25333;50.762;4.470;2022-08-05T15:09:59;22.90;86.70
38973;DHT22;25333;50.762;4.470;2022-08-05T15:12:24;23.00;85.20
38973;DHT22;25333;50.762;4.470;2022-08-05T15:14:50;23.00;88.00
38973;DHT22;25333;50.762;4.470;2022-08-05T15:17:19;23.00;87.70
38973;DHT22;25333;50.762;4.470;2022-08-05T15:19:45;23.10;87.00
38973;DHT22;25333;50.762;4.470;2022-08-05T15:22:11;23.10;86.40
38973;DHT22;25333;50.762;4.470;2022-08-05T15:24:37;22.90;83.10
38973;DHT22;25333;50.762;4.470;2022-08-05T15:27:02;22.90;84.60
38973;DHT22;25333;50.762;4.470;2022-08-05T15:29:28;23.00;87.30
38973;DHT22;25333;50.762;4.470;2022-08-05T15:31:54;23.00;85.60
38973;DHT22;25333;50.762;4.470;2022-08-05T15:34:20;22.90;85.60
38973;DHT22;25333;50.762;4.470;2022-08-05T15:36:46;22.80;83.60
38973;DHT22;25333;50.762;4.470;2022-08-05T15:39:12;22.80;87.90
38973;DHT22;25333;50.762;4.470;2022-08-05T15:41:37;22.80;86.50
38973;DHT22;25333;50.762;4.470;2022-08-05T15:44:03;22.70;84.00
38973;DHT22;25333;50.762;4.470;2022-08-05T15:46:29;22.70;82.60
38973;DHT22;25333;50.762;4.470;2022-08-05T15:48:54;22.60;83.60
38973;DHT22;25333;50.762;4.470;2022-08-05T15:51:25;22.70;83.00
38973;DHT22;25333;50.762;4.470;2022-08-05T15:53:51;22.70;83.60
38973;DHT22;25333;50.762;4.470;2022-08-05T15:56:18;22.60;85.60
38973;DHT22;25333;50.762;4.470;2022-08-05T15:58:44;22.60;84.60
38973;DHT22;25333;50.762;4.470;2022-08-05T16:01:11;22.40;84.00
38973;DHT22;25333;50.762;4.470;2022-08-05T16:03:39;22.20;85.50
38973;DHT22;25333;50.762;4.470;2022-08-05T16:06:05;22.20;85.60
38973;DHT22;25333;50.762;4.470;2022-08-05T16:08:30;22.20;86.10
38973;DHT22;25333;50.762;4.470;2022-08-05T16:10:56;22.20;84.90
38973;DHT22;25333;50.762;4.470;2022-08-05T16:13:22;22.20;86.80